IPG5 KFLL-TIST
Flight info
| Callsign | IPG5 |
|---|---|
| Flight time | 2h 9m |
| Altitude | 35000 |
| Route | SNAPR2 SUMAC Y421 HAGIT Y290 JETSS |
| Aircraft | B752/M-SDE2E3FGHIJ3J4J7RWXY/LB1 |
Departure
| Time | 2026-05-04 21:40 |
|---|---|
| Airport | Fort Lauderdale Hollywood International Airport (KFLL) |
Arrival
| Time | 2026-05-04 23:49 |
|---|---|
| Airport | Cyril E. King Airport (TIST) |
| Time | Latitude | Longitude | Altitude | Speed | Heading |
|---|---|---|---|---|---|
| 2026-05-04 21:08 | 26.07339 | -80.14765 | 14 ft | 0 kts | 95° |
| 2026-05-04 21:26 | 26.07340 | -80.14778 | 14 ft | 1 kts | 95° |
| 2026-05-04 21:27 | 26.07339 | -80.14794 | 13 ft | 2 kts | 71° |
| 2026-05-04 21:27 | 26.07332 | -80.14809 | 14 ft | 2 kts | 49° |
| 2026-05-04 21:27 | 26.07321 | -80.14819 | 14 ft | 2 kts | 27° |
| 2026-05-04 21:27 | 26.07307 | -80.14825 | 13 ft | 2 kts | 5° |
| 2026-05-04 21:28 | 26.07293 | -80.14823 | 13 ft | 0 kts | 343° |
| 2026-05-04 21:28 | 26.07287 | -80.14821 | 13 ft | 1 kts | 340° |
| 2026-05-04 21:28 | 26.07286 | -80.14821 | 13 ft | 0 kts | 340° |
| 2026-05-04 21:31 | 26.07287 | -80.14821 | 13 ft | 0 kts | 340° |
| 2026-05-04 21:31 | 26.07307 | -80.14829 | 13 ft | 4 kts | 340° |
| 2026-05-04 21:31 | 26.07346 | -80.14842 | 14 ft | 6 kts | 350° |
| 2026-05-04 21:32 | 26.07379 | -80.14844 | 14 ft | 0 kts | 5° |
| 2026-05-04 21:32 | 26.07384 | -80.14844 | 14 ft | 2 kts | 5° |
| 2026-05-04 21:32 | 26.07408 | -80.14840 | 13 ft | 4 kts | 12° |
| 2026-05-04 21:32 | 26.07445 | -80.14835 | 13 ft | 7 kts | 356° |
| 2026-05-04 21:33 | 26.07484 | -80.14868 | 14 ft | 9 kts | 287° |
| 2026-05-04 21:33 | 26.07489 | -80.14958 | 14 ft | 15 kts | 267° |
| 2026-05-04 21:33 | 26.07505 | -80.15051 | 13 ft | 10 kts | 300° |
| 2026-05-04 21:33 | 26.07545 | -80.15117 | 14 ft | 9 kts | 301° |
| 2026-05-04 21:34 | 26.07558 | -80.15183 | 13 ft | 8 kts | 274° |
| 2026-05-04 21:34 | 26.07560 | -80.15236 | 13 ft | 0 kts | 271° |
| 2026-05-04 21:34 | 26.07560 | -80.15245 | 13 ft | 2 kts | 271° |
| 2026-05-04 21:34 | 26.07561 | -80.15276 | 13 ft | 5 kts | 270° |
| 2026-05-04 21:35 | 26.07561 | -80.15338 | 13 ft | 8 kts | 270° |
| 2026-05-04 21:35 | 26.07561 | -80.15420 | 13 ft | 14 kts | 270° |
| 2026-05-04 21:35 | 26.07562 | -80.15559 | 14 ft | 19 kts | 270° |
| 2026-05-04 21:35 | 26.07565 | -80.15705 | 13 ft | 18 kts | 272° |
| 2026-05-04 21:36 | 26.07567 | -80.15841 | 13 ft | 16 kts | 270° |
| 2026-05-04 21:36 | 26.07566 | -80.15966 | 13 ft | 15 kts | 270° |
| 2026-05-04 21:36 | 26.07568 | -80.16080 | 14 ft | 14 kts | 271° |
| 2026-05-04 21:36 | 26.07569 | -80.16186 | 14 ft | 13 kts | 270° |
| 2026-05-04 21:37 | 26.07569 | -80.16283 | 14 ft | 11 kts | 270° |
| 2026-05-04 21:37 | 26.07568 | -80.16369 | 13 ft | 10 kts | 269° |
| 2026-05-04 21:37 | 26.07567 | -80.16445 | 14 ft | 9 kts | 269° |
| 2026-05-04 21:37 | 26.07566 | -80.16514 | 14 ft | 8 kts | 271° |
| 2026-05-04 21:38 | 26.07570 | -80.16595 | 14 ft | 10 kts | 279° |
| 2026-05-04 21:38 | 26.07587 | -80.16624 | 14 ft | 0 kts | 322° |
| 2026-05-04 21:38 | 26.07608 | -80.16636 | 14 ft | 6 kts | 343° |
| 2026-05-04 21:38 | 26.07652 | -80.16640 | 13 ft | 5 kts | 10° |
| 2026-05-04 21:39 | 26.07685 | -80.16585 | 14 ft | 17 kts | 82° |
| 2026-05-04 21:39 | 26.07690 | -80.16262 | 14 ft | 79 kts | 90° |
| 2026-05-04 21:39 | 26.07691 | -80.15321 | 15 ft | 158 kts | 91° |
| 2026-05-04 21:39 | 26.07687 | -80.13930 | 369 ft | 194 kts | 92° |
| 2026-05-04 21:40 | 26.07685 | -80.12411 | 1238 ft | 208 kts | 95° |
| 2026-05-04 21:40 | 26.07606 | -80.10750 | 2261 ft | 219 kts | 97° |
| 2026-05-04 21:40 | 26.07495 | -80.09108 | 3427 ft | 224 kts | 99° |
| 2026-05-04 21:40 | 26.07346 | -80.07337 | 4168 ft | 244 kts | 99° |
| 2026-05-04 21:41 | 26.07165 | -80.05390 | 5106 ft | 262 kts | 99° |
| 2026-05-04 21:41 | 26.06970 | -80.03374 | 6223 ft | 271 kts | 99° |
| 2026-05-04 21:41 | 26.06758 | -80.01256 | 7099 ft | 290 kts | 98° |
| 2026-05-04 21:41 | 26.06705 | -79.98969 | 8182 ft | 301 kts | 92° |
| 2026-05-04 21:42 | 26.06690 | -79.96665 | 9322 ft | 306 kts | 93° |
| 2026-05-04 21:42 | 26.06665 | -79.94293 | 10353 ft | 314 kts | 93° |
| 2026-05-04 21:42 | 26.06639 | -79.91794 | 11008 ft | 337 kts | 92° |
| 2026-05-04 21:42 | 26.06612 | -79.89122 | 11682 ft | 358 kts | 92° |
| 2026-05-04 21:43 | 26.06583 | -79.86253 | 12340 ft | 381 kts | 92° |
| 2026-05-04 21:43 | 26.06511 | -79.83249 | 13159 ft | 396 kts | 97° |
| 2026-05-04 21:43 | 26.06081 | -79.80232 | 14277 ft | 401 kts | 101° |
| 2026-05-04 21:43 | 26.05618 | -79.77174 | 15334 ft | 407 kts | 101° |
| 2026-05-04 21:44 | 26.05139 | -79.74059 | 16328 ft | 415 kts | 100° |
| 2026-05-04 21:44 | 26.04652 | -79.70920 | 17407 ft | 419 kts | 100° |
| 2026-05-04 21:44 | 26.04151 | -79.67689 | 18296 ft | 426 kts | 100° |
| 2026-05-04 21:44 | 26.03628 | -79.64429 | 19078 ft | 435 kts | 103° |
| 2026-05-04 21:45 | 26.02877 | -79.61189 | 19930 ft | 439 kts | 106° |
| 2026-05-04 21:45 | 26.02091 | -79.57887 | 20636 ft | 448 kts | 105° |
| 2026-05-04 21:45 | 26.01288 | -79.54486 | 21413 ft | 454 kts | 105° |
| 2026-05-04 21:45 | 26.00488 | -79.51094 | 22129 ft | 461 kts | 105° |
| 2026-05-04 21:46 | 25.99669 | -79.47618 | 22811 ft | 467 kts | 105° |
| 2026-05-04 21:46 | 25.98842 | -79.44109 | 23506 ft | 474 kts | 105° |
| 2026-05-04 21:46 | 25.98000 | -79.40557 | 24190 ft | 480 kts | 107° |
| 2026-05-04 21:46 | 25.96882 | -79.37071 | 24816 ft | 484 kts | 115° |
| 2026-05-04 21:47 | 25.95470 | -79.33630 | 25530 ft | 488 kts | 117° |
| 2026-05-04 21:47 | 25.94052 | -79.30173 | 26146 ft | 494 kts | 117° |
| 2026-05-04 21:47 | 25.92615 | -79.26694 | 26751 ft | 499 kts | 117° |
| 2026-05-04 21:47 | 25.91152 | -79.23166 | 27350 ft | 504 kts | 117° |
| 2026-05-04 21:48 | 25.89663 | -79.19583 | 27921 ft | 510 kts | 117° |
| 2026-05-04 21:48 | 25.88192 | -79.16049 | 28505 ft | 514 kts | 117° |
| 2026-05-04 21:48 | 25.86666 | -79.12387 | 29009 ft | 520 kts | 117° |
| 2026-05-04 21:48 | 25.85153 | -79.08762 | 29630 ft | 522 kts | 117° |
| 2026-05-04 21:49 | 25.83621 | -79.05093 | 30100 ft | 527 kts | 117° |
| 2026-05-04 21:49 | 25.82067 | -79.01373 | 30665 ft | 528 kts | 117° |
| 2026-05-04 21:49 | 25.80514 | -78.97660 | 31343 ft | 526 kts | 117° |
| 2026-05-04 21:49 | 25.78984 | -78.94006 | 32127 ft | 521 kts | 117° |
| 2026-05-04 21:50 | 25.77440 | -78.90321 | 32694 ft | 519 kts | 117° |
| 2026-05-04 21:50 | 25.75911 | -78.86677 | 33185 ft | 518 kts | 117° |
| 2026-05-04 21:50 | 25.74397 | -78.83071 | 33705 ft | 517 kts | 117° |
| 2026-05-04 21:50 | 25.72869 | -78.79436 | 34073 ft | 517 kts | 117° |
| 2026-05-04 21:51 | 25.71355 | -78.75835 | 34570 ft | 515 kts | 117° |
| 2026-05-04 21:51 | 25.69848 | -78.72255 | 34947 ft | 515 kts | 117° |
| 2026-05-04 21:51 | 25.68337 | -78.68665 | 34981 ft | 508 kts | 117° |
| 2026-05-04 21:52 | 25.65337 | -78.61555 | 34990 ft | 510 kts | 117° |
| 2026-05-04 21:52 | 25.62331 | -78.54443 | 34995 ft | 511 kts | 117° |
| 2026-05-04 21:53 | 25.59317 | -78.47318 | 34992 ft | 511 kts | 117° |
| 2026-05-04 21:53 | 25.56313 | -78.40232 | 34992 ft | 511 kts | 117° |
| 2026-05-04 21:54 | 25.53275 | -78.33076 | 34984 ft | 510 kts | 118° |
| 2026-05-04 21:54 | 25.50263 | -78.25995 | 34986 ft | 511 kts | 118° |
| 2026-05-04 21:55 | 25.47232 | -78.18879 | 34985 ft | 510 kts | 118° |
| 2026-05-04 21:55 | 25.44195 | -78.11762 | 34987 ft | 510 kts | 117° |
| 2026-05-04 21:56 | 25.41178 | -78.04701 | 34986 ft | 509 kts | 118° |
| 2026-05-04 21:56 | 25.38138 | -77.97598 | 34989 ft | 508 kts | 118° |
| 2026-05-04 21:57 | 25.35120 | -77.90562 | 34990 ft | 508 kts | 117° |
| 2026-05-04 21:57 | 25.32080 | -77.83482 | 34992 ft | 508 kts | 117° |
| 2026-05-04 21:58 | 25.29060 | -77.76460 | 34994 ft | 508 kts | 117° |
| 2026-05-04 21:58 | 25.26019 | -77.69401 | 34999 ft | 507 kts | 117° |
| 2026-05-04 21:59 | 25.22995 | -77.62394 | 35008 ft | 507 kts | 117° |
| 2026-05-04 21:59 | 25.19955 | -77.55360 | 35010 ft | 508 kts | 117° |
| 2026-05-04 22:00 | 25.16900 | -77.48304 | 35020 ft | 507 kts | 117° |
| 2026-05-04 22:00 | 25.13874 | -77.41324 | 35019 ft | 507 kts | 117° |
| 2026-05-04 22:01 | 25.10823 | -77.34298 | 35017 ft | 506 kts | 118° |
| 2026-05-04 22:01 | 25.07779 | -77.27301 | 35010 ft | 505 kts | 118° |
| 2026-05-04 22:02 | 25.04746 | -77.20337 | 35014 ft | 505 kts | 118° |
| 2026-05-04 22:02 | 25.01693 | -77.13339 | 35018 ft | 506 kts | 118° |
| 2026-05-04 22:03 | 24.98622 | -77.06313 | 35021 ft | 504 kts | 118° |
| 2026-05-04 22:03 | 24.95574 | -76.99349 | 35023 ft | 505 kts | 117° |
| 2026-05-04 22:04 | 24.92523 | -76.92388 | 35025 ft | 505 kts | 118° |
| 2026-05-04 22:04 | 24.89476 | -76.85448 | 35028 ft | 505 kts | 118° |
| 2026-05-04 22:05 | 24.86409 | -76.78474 | 35026 ft | 504 kts | 117° |
| 2026-05-04 22:05 | 24.83357 | -76.71545 | 35018 ft | 504 kts | 117° |
| 2026-05-04 22:06 | 24.80300 | -76.64615 | 35018 ft | 504 kts | 117° |
| 2026-05-04 22:06 | 24.77234 | -76.57674 | 35024 ft | 503 kts | 117° |
| 2026-05-04 22:07 | 24.74180 | -76.50771 | 35026 ft | 503 kts | 117° |
| 2026-05-04 22:07 | 24.71103 | -76.43828 | 35024 ft | 502 kts | 117° |
| 2026-05-04 22:08 | 24.68053 | -76.36955 | 35030 ft | 501 kts | 117° |
| 2026-05-04 22:08 | 24.64979 | -76.30039 | 35024 ft | 502 kts | 118° |
| 2026-05-04 22:09 | 24.61920 | -76.23166 | 35022 ft | 502 kts | 118° |
| 2026-05-04 22:09 | 24.58868 | -76.16322 | 35024 ft | 500 kts | 118° |
| 2026-05-04 22:10 | 24.55448 | -76.09669 | 35026 ft | 500 kts | 123° |
| 2026-05-04 22:10 | 24.51830 | -76.03155 | 35025 ft | 500 kts | 123° |
| 2026-05-04 22:11 | 24.48212 | -75.96675 | 35026 ft | 498 kts | 123° |
| 2026-05-04 22:11 | 24.44571 | -75.90175 | 35030 ft | 496 kts | 123° |
| 2026-05-04 22:12 | 24.40944 | -75.83712 | 35032 ft | 497 kts | 123° |
| 2026-05-04 22:12 | 24.37322 | -75.77268 | 35029 ft | 497 kts | 123° |
| 2026-05-04 22:13 | 24.33686 | -75.70807 | 35031 ft | 497 kts | 123° |
| 2026-05-04 22:13 | 24.30060 | -75.64372 | 35031 ft | 498 kts | 123° |
| 2026-05-04 22:14 | 24.26402 | -75.57887 | 35029 ft | 498 kts | 123° |
| 2026-05-04 22:14 | 24.22761 | -75.51444 | 35034 ft | 497 kts | 123° |
| 2026-05-04 22:15 | 24.19138 | -75.45042 | 35033 ft | 496 kts | 123° |
| 2026-05-04 22:15 | 24.15502 | -75.38623 | 35038 ft | 497 kts | 123° |
| 2026-05-04 22:16 | 24.11850 | -75.32185 | 35025 ft | 496 kts | 123° |
| 2026-05-04 22:16 | 24.08206 | -75.25769 | 35029 ft | 496 kts | 123° |
| 2026-05-04 22:17 | 24.04558 | -75.19356 | 35027 ft | 495 kts | 123° |
| 2026-05-04 22:17 | 24.00913 | -75.12954 | 35028 ft | 494 kts | 123° |
| 2026-05-04 22:18 | 23.97282 | -75.06587 | 35030 ft | 494 kts | 123° |
| 2026-05-04 22:18 | 23.93653 | -75.00230 | 35027 ft | 495 kts | 123° |
| 2026-05-04 22:19 | 23.89984 | -74.93812 | 35029 ft | 496 kts | 123° |
| 2026-05-04 22:19 | 23.86348 | -74.87461 | 35029 ft | 496 kts | 123° |
| 2026-05-04 22:20 | 23.82671 | -74.81046 | 35035 ft | 495 kts | 123° |
| 2026-05-04 22:20 | 23.79024 | -74.74691 | 35035 ft | 495 kts | 123° |
| 2026-05-04 22:21 | 23.75382 | -74.68353 | 35035 ft | 494 kts | 123° |
| 2026-05-04 22:21 | 23.71722 | -74.61992 | 35038 ft | 493 kts | 123° |
| 2026-05-04 22:22 | 23.68076 | -74.55662 | 35039 ft | 495 kts | 123° |
| 2026-05-04 22:22 | 23.64423 | -74.49329 | 35043 ft | 493 kts | 123° |
| 2026-05-04 22:23 | 23.60760 | -74.42987 | 35042 ft | 494 kts | 123° |
| 2026-05-04 22:23 | 23.57117 | -74.36688 | 35042 ft | 493 kts | 123° |
| 2026-05-04 22:24 | 23.53449 | -74.30353 | 35041 ft | 492 kts | 123° |
| 2026-05-04 22:24 | 23.49795 | -74.24049 | 35039 ft | 493 kts | 123° |
| 2026-05-04 22:25 | 23.46133 | -74.17741 | 35040 ft | 492 kts | 123° |
| 2026-05-04 22:25 | 23.42464 | -74.11427 | 35045 ft | 492 kts | 123° |
| 2026-05-04 22:26 | 23.38780 | -74.05096 | 35045 ft | 492 kts | 123° |
| 2026-05-04 22:26 | 23.35111 | -73.98798 | 35046 ft | 492 kts | 123° |
| 2026-05-04 22:27 | 23.31453 | -73.92528 | 35050 ft | 492 kts | 123° |
| 2026-05-04 22:27 | 23.27790 | -73.86256 | 35049 ft | 491 kts | 123° |
| 2026-05-04 22:28 | 23.24138 | -73.80011 | 35050 ft | 492 kts | 123° |
| 2026-05-04 22:28 | 23.20447 | -73.73707 | 35054 ft | 492 kts | 123° |
| 2026-05-04 22:29 | 23.16787 | -73.67463 | 35053 ft | 491 kts | 123° |
| 2026-05-04 22:29 | 23.13099 | -73.61179 | 35052 ft | 491 kts | 123° |
| 2026-05-04 22:30 | 23.09428 | -73.54932 | 35052 ft | 490 kts | 123° |
| 2026-05-04 22:30 | 23.05746 | -73.48676 | 35051 ft | 492 kts | 123° |
| 2026-05-04 22:31 | 23.02082 | -73.42457 | 35054 ft | 489 kts | 123° |
| 2026-05-04 22:31 | 22.98412 | -73.36233 | 35054 ft | 490 kts | 123° |
| 2026-05-04 22:32 | 22.94731 | -73.29999 | 35048 ft | 490 kts | 123° |
| 2026-05-04 22:32 | 22.91060 | -73.23789 | 35048 ft | 489 kts | 123° |
| 2026-05-04 22:33 | 22.87382 | -73.17576 | 35046 ft | 489 kts | 123° |
| 2026-05-04 22:33 | 22.83720 | -73.11398 | 35049 ft | 489 kts | 123° |
| 2026-05-04 22:34 | 22.80032 | -73.05181 | 35047 ft | 489 kts | 123° |
| 2026-05-04 22:34 | 22.76358 | -72.98997 | 35048 ft | 489 kts | 123° |
| 2026-05-04 22:35 | 22.72652 | -72.92766 | 35051 ft | 489 kts | 123° |
| 2026-05-04 22:35 | 22.68968 | -72.86580 | 35049 ft | 488 kts | 123° |
| 2026-05-04 22:36 | 22.65274 | -72.80383 | 35051 ft | 489 kts | 123° |
| 2026-05-04 22:36 | 22.61589 | -72.74210 | 35049 ft | 489 kts | 123° |
| 2026-05-04 22:37 | 22.57906 | -72.68045 | 35051 ft | 489 kts | 123° |
| 2026-05-04 22:37 | 22.54192 | -72.61838 | 35053 ft | 490 kts | 123° |
| 2026-05-04 22:38 | 22.50511 | -72.55694 | 35051 ft | 489 kts | 123° |
| 2026-05-04 22:38 | 22.46789 | -72.49486 | 35052 ft | 488 kts | 123° |
| 2026-05-04 22:39 | 22.43097 | -72.43336 | 35052 ft | 488 kts | 123° |
| 2026-05-04 22:39 | 22.39413 | -72.37207 | 35052 ft | 487 kts | 123° |
| 2026-05-04 22:40 | 22.35703 | -72.31042 | 35048 ft | 487 kts | 123° |
| 2026-05-04 22:40 | 22.32007 | -72.24908 | 35050 ft | 488 kts | 123° |
| 2026-05-04 22:41 | 22.28304 | -72.18768 | 35048 ft | 488 kts | 123° |
| 2026-05-04 22:41 | 22.24590 | -72.12618 | 35047 ft | 489 kts | 123° |
| 2026-05-04 22:42 | 22.20874 | -72.06472 | 35050 ft | 488 kts | 123° |
| 2026-05-04 22:42 | 22.17177 | -72.00364 | 35049 ft | 487 kts | 123° |
| 2026-05-04 22:43 | 22.13476 | -71.94256 | 35053 ft | 487 kts | 123° |
| 2026-05-04 22:43 | 22.09774 | -71.88153 | 35052 ft | 486 kts | 123° |
| 2026-05-04 22:44 | 22.06068 | -71.82052 | 35054 ft | 486 kts | 123° |
| 2026-05-04 22:44 | 22.02366 | -71.75964 | 35050 ft | 486 kts | 123° |
| 2026-05-04 22:45 | 21.98647 | -71.69852 | 35051 ft | 486 kts | 123° |
| 2026-05-04 22:45 | 21.93081 | -71.60722 | 35052 ft | 487 kts | 123° |
| 2026-05-04 22:46 | 21.89362 | -71.54630 | 35050 ft | 486 kts | 123° |
| 2026-05-04 22:46 | 21.85647 | -71.48550 | 35049 ft | 485 kts | 123° |
| 2026-05-04 22:47 | 21.81936 | -71.42485 | 35049 ft | 486 kts | 123° |
| 2026-05-04 22:47 | 21.78212 | -71.36404 | 35050 ft | 486 kts | 123° |
| 2026-05-04 22:48 | 21.74488 | -71.30331 | 35046 ft | 485 kts | 123° |
| 2026-05-04 22:48 | 21.70785 | -71.24298 | 35047 ft | 485 kts | 123° |
| 2026-05-04 22:49 | 21.67049 | -71.18220 | 35048 ft | 485 kts | 123° |
| 2026-05-04 22:49 | 21.63324 | -71.12164 | 35049 ft | 485 kts | 123° |
| 2026-05-04 22:50 | 21.59597 | -71.06113 | 35050 ft | 486 kts | 123° |
| 2026-05-04 22:50 | 21.55839 | -71.00103 | 35048 ft | 486 kts | 124° |
| 2026-05-04 22:51 | 21.52028 | -70.94107 | 35049 ft | 485 kts | 124° |
| 2026-05-04 22:51 | 21.48212 | -70.88107 | 35051 ft | 486 kts | 124° |
| 2026-05-04 22:52 | 21.44401 | -70.82121 | 35053 ft | 485 kts | 124° |
| 2026-05-04 22:52 | 21.40606 | -70.76167 | 35050 ft | 485 kts | 124° |
| 2026-05-04 22:53 | 21.36773 | -70.70160 | 35054 ft | 486 kts | 124° |
| 2026-05-04 22:53 | 21.32950 | -70.64175 | 35052 ft | 485 kts | 124° |
| 2026-05-04 22:54 | 21.29147 | -70.58227 | 35054 ft | 485 kts | 124° |
| 2026-05-04 22:54 | 21.25319 | -70.52246 | 35053 ft | 487 kts | 124° |
| 2026-05-04 22:55 | 21.21482 | -70.46258 | 35051 ft | 485 kts | 124° |
| 2026-05-04 22:55 | 21.17639 | -70.40266 | 35051 ft | 486 kts | 124° |
| 2026-05-04 22:56 | 21.13819 | -70.34319 | 35053 ft | 486 kts | 125° |
| 2026-05-04 22:56 | 21.09987 | -70.28358 | 35049 ft | 485 kts | 124° |
| 2026-05-04 22:57 | 21.06142 | -70.22383 | 35050 ft | 485 kts | 124° |
| 2026-05-04 22:57 | 21.02304 | -70.16425 | 35050 ft | 486 kts | 124° |
| 2026-05-04 22:58 | 20.98473 | -70.10484 | 35049 ft | 486 kts | 124° |
| 2026-05-04 22:58 | 20.94625 | -70.04523 | 35049 ft | 487 kts | 124° |
| 2026-05-04 22:59 | 20.90780 | -69.98573 | 35050 ft | 486 kts | 124° |
| 2026-05-04 22:59 | 20.86935 | -69.92630 | 35046 ft | 486 kts | 124° |
| 2026-05-04 23:00 | 20.83071 | -69.86663 | 35044 ft | 486 kts | 124° |
| 2026-05-04 23:00 | 20.79227 | -69.80733 | 35046 ft | 485 kts | 124° |
| 2026-05-04 23:01 | 20.75374 | -69.74796 | 35047 ft | 486 kts | 124° |
| 2026-05-04 23:01 | 20.71506 | -69.68841 | 35046 ft | 485 kts | 124° |
| 2026-05-04 23:02 | 20.67653 | -69.62916 | 35044 ft | 484 kts | 124° |
| 2026-05-04 23:02 | 20.63809 | -69.57011 | 35047 ft | 485 kts | 124° |
| 2026-05-04 23:03 | 20.59952 | -69.51091 | 35044 ft | 485 kts | 124° |
| 2026-05-04 23:03 | 20.56107 | -69.45197 | 35047 ft | 486 kts | 124° |
| 2026-05-04 23:04 | 20.52256 | -69.39300 | 35048 ft | 484 kts | 124° |
| 2026-05-04 23:04 | 20.48395 | -69.33393 | 35046 ft | 485 kts | 124° |
| 2026-05-04 23:05 | 20.44525 | -69.27478 | 35046 ft | 485 kts | 124° |
| 2026-05-04 23:05 | 20.40675 | -69.21600 | 35046 ft | 485 kts | 124° |
| 2026-05-04 23:06 | 20.36796 | -69.15683 | 35048 ft | 485 kts | 124° |
| 2026-05-04 23:06 | 20.32942 | -69.09811 | 35048 ft | 485 kts | 124° |
| 2026-05-04 23:07 | 20.29067 | -69.03913 | 35051 ft | 485 kts | 124° |
| 2026-05-04 23:07 | 20.25204 | -68.98038 | 35051 ft | 484 kts | 124° |
| 2026-05-04 23:08 | 20.21320 | -68.92137 | 35053 ft | 485 kts | 124° |
| 2026-05-04 23:08 | 20.17468 | -68.86292 | 35051 ft | 484 kts | 124° |
| 2026-05-04 23:09 | 20.13583 | -68.80402 | 35056 ft | 485 kts | 124° |
| 2026-05-04 23:09 | 20.09718 | -68.74549 | 35059 ft | 485 kts | 124° |
| 2026-05-04 23:10 | 20.05909 | -68.68574 | 35060 ft | 485 kts | 122° |
| 2026-05-04 23:10 | 20.02217 | -68.62597 | 35062 ft | 484 kts | 122° |
| 2026-05-04 23:11 | 19.98521 | -68.56626 | 35057 ft | 484 kts | 122° |
| 2026-05-04 23:11 | 19.94807 | -68.50634 | 35058 ft | 484 kts | 122° |
| 2026-05-04 23:12 | 19.91110 | -68.44676 | 35061 ft | 484 kts | 122° |
| 2026-05-04 23:12 | 19.87397 | -68.38698 | 35058 ft | 484 kts | 122° |
| 2026-05-04 23:13 | 19.83681 | -68.32719 | 35056 ft | 484 kts | 122° |
| 2026-05-04 23:13 | 19.79965 | -68.26750 | 35056 ft | 484 kts | 122° |
| 2026-05-04 23:14 | 19.76264 | -68.20809 | 35055 ft | 485 kts | 122° |
| 2026-05-04 23:14 | 19.72531 | -68.14822 | 35054 ft | 484 kts | 122° |
| 2026-05-04 23:15 | 19.68827 | -68.08888 | 35059 ft | 484 kts | 122° |
| 2026-05-04 23:15 | 19.65089 | -68.02908 | 35056 ft | 485 kts | 122° |
| 2026-05-04 23:16 | 19.61370 | -67.96961 | 35061 ft | 485 kts | 122° |
| 2026-05-04 23:16 | 19.57639 | -67.91002 | 35063 ft | 484 kts | 122° |
| 2026-05-04 23:17 | 19.53909 | -67.85051 | 35063 ft | 485 kts | 122° |
| 2026-05-04 23:17 | 19.50183 | -67.79112 | 35064 ft | 483 kts | 122° |
| 2026-05-04 23:18 | 19.46461 | -67.73183 | 35059 ft | 483 kts | 122° |
| 2026-05-04 23:18 | 19.42733 | -67.67250 | 35059 ft | 483 kts | 122° |
| 2026-05-04 23:19 | 19.38999 | -67.61313 | 35060 ft | 483 kts | 122° |
| 2026-05-04 23:19 | 19.35283 | -67.55411 | 35063 ft | 483 kts | 122° |
| 2026-05-04 23:20 | 19.31536 | -67.49465 | 35064 ft | 484 kts | 122° |
| 2026-05-04 23:20 | 19.27805 | -67.43553 | 35065 ft | 485 kts | 122° |
| 2026-05-04 23:21 | 19.24059 | -67.37620 | 35062 ft | 484 kts | 122° |
| 2026-05-04 23:21 | 19.20308 | -67.31686 | 35064 ft | 484 kts | 123° |
| 2026-05-04 23:22 | 19.16565 | -67.25771 | 35065 ft | 482 kts | 123° |
| 2026-05-04 23:22 | 19.12857 | -67.19916 | 35069 ft | 482 kts | 123° |
| 2026-05-04 23:23 | 19.09121 | -67.14022 | 35071 ft | 484 kts | 123° |
| 2026-05-04 23:23 | 19.05398 | -67.08155 | 34988 ft | 466 kts | 123° |
| 2026-05-04 23:24 | 19.03597 | -67.05320 | 34268 ft | 458 kts | 122° |
| 2026-05-04 23:24 | 19.01835 | -67.02546 | 33583 ft | 452 kts | 122° |
| 2026-05-04 23:24 | 19.00102 | -66.99819 | 32922 ft | 449 kts | 122° |
| 2026-05-04 23:24 | 18.98361 | -66.97079 | 32311 ft | 451 kts | 121° |
| 2026-05-04 23:25 | 18.96702 | -66.94469 | 31738 ft | 455 kts | 122° |
| 2026-05-04 23:25 | 18.94938 | -66.91697 | 31146 ft | 456 kts | 122° |
| 2026-05-04 23:25 | 18.93158 | -66.88901 | 30561 ft | 456 kts | 121° |
| 2026-05-04 23:25 | 18.91406 | -66.86151 | 29995 ft | 457 kts | 121° |
| 2026-05-04 23:26 | 18.89621 | -66.83349 | 29435 ft | 458 kts | 121° |
| 2026-05-04 23:26 | 18.87858 | -66.80584 | 28883 ft | 457 kts | 121° |
| 2026-05-04 23:26 | 18.86081 | -66.77799 | 28336 ft | 453 kts | 121° |
| 2026-05-04 23:26 | 18.84321 | -66.75040 | 27805 ft | 447 kts | 121° |
| 2026-05-04 23:27 | 18.82597 | -66.72340 | 27293 ft | 442 kts | 121° |
| 2026-05-04 23:27 | 18.80907 | -66.69692 | 26796 ft | 437 kts | 121° |
| 2026-05-04 23:27 | 18.79208 | -66.67032 | 26301 ft | 434 kts | 122° |
| 2026-05-04 23:27 | 18.77531 | -66.64383 | 25804 ft | 431 kts | 119° |
| 2026-05-04 23:28 | 18.76183 | -66.61624 | 25330 ft | 426 kts | 109° |
| 2026-05-04 23:28 | 18.75281 | -66.58652 | 24847 ft | 422 kts | 102° |
| 2026-05-04 23:28 | 18.74534 | -66.55653 | 24351 ft | 420 kts | 103° |
| 2026-05-04 23:28 | 18.73805 | -66.52713 | 23866 ft | 416 kts | 102° |
| 2026-05-04 23:29 | 18.73089 | -66.49777 | 23387 ft | 413 kts | 102° |
| 2026-05-04 23:29 | 18.72377 | -66.46839 | 22912 ft | 409 kts | 102° |
| 2026-05-04 23:29 | 18.71683 | -66.43961 | 22447 ft | 407 kts | 102° |
| 2026-05-04 23:29 | 18.70990 | -66.41074 | 22005 ft | 405 kts | 102° |
| 2026-05-04 23:30 | 18.70300 | -66.38205 | 21569 ft | 404 kts | 102° |
| 2026-05-04 23:30 | 18.69614 | -66.35346 | 21127 ft | 401 kts | 103° |
| 2026-05-04 23:30 | 18.68924 | -66.32471 | 20684 ft | 400 kts | 103° |
| 2026-05-04 23:30 | 18.68233 | -66.29596 | 20242 ft | 399 kts | 103° |
| 2026-05-04 23:31 | 18.67541 | -66.26719 | 19796 ft | 397 kts | 104° |
| 2026-05-04 23:31 | 18.66867 | -66.23915 | 19346 ft | 395 kts | 104° |
| 2026-05-04 23:31 | 18.66186 | -66.21083 | 18900 ft | 395 kts | 104° |
| 2026-05-04 23:31 | 18.65519 | -66.18314 | 18458 ft | 394 kts | 104° |
| 2026-05-04 23:32 | 18.64838 | -66.15488 | 17994 ft | 392 kts | 105° |
| 2026-05-04 23:32 | 18.64169 | -66.12717 | 17549 ft | 390 kts | 105° |
| 2026-05-04 23:32 | 18.63509 | -66.09984 | 17112 ft | 387 kts | 105° |
| 2026-05-04 23:32 | 18.62844 | -66.07233 | 16674 ft | 384 kts | 105° |
| 2026-05-04 23:33 | 18.62186 | -66.04515 | 16236 ft | 381 kts | 105° |
| 2026-05-04 23:33 | 18.61539 | -66.01838 | 15806 ft | 378 kts | 105° |
| 2026-05-04 23:33 | 18.60892 | -65.99167 | 15377 ft | 375 kts | 105° |
| 2026-05-04 23:33 | 18.60247 | -65.96506 | 14947 ft | 372 kts | 105° |
| 2026-05-04 23:34 | 18.59611 | -65.93882 | 14519 ft | 369 kts | 105° |
| 2026-05-04 23:34 | 18.58976 | -65.91264 | 14092 ft | 366 kts | 105° |
| 2026-05-04 23:34 | 18.58356 | -65.88705 | 13676 ft | 363 kts | 105° |
| 2026-05-04 23:34 | 18.57731 | -65.86132 | 13256 ft | 361 kts | 105° |
| 2026-05-04 23:35 | 18.57107 | -65.83566 | 12845 ft | 359 kts | 105° |
| 2026-05-04 23:35 | 18.56497 | -65.81059 | 12434 ft | 356 kts | 104° |
| 2026-05-04 23:35 | 18.55882 | -65.78530 | 12013 ft | 352 kts | 104° |
| 2026-05-04 23:35 | 18.55285 | -65.76076 | 11553 ft | 343 kts | 104° |
| 2026-05-04 23:36 | 18.54714 | -65.73731 | 11225 ft | 317 kts | 104° |
| 2026-05-04 23:36 | 18.54186 | -65.71564 | 11025 ft | 293 kts | 104° |
| 2026-05-04 23:36 | 18.53695 | -65.69546 | 10903 ft | 280 kts | 104° |
| 2026-05-04 23:36 | 18.53204 | -65.67534 | 10794 ft | 286 kts | 104° |
| 2026-05-04 23:37 | 18.52704 | -65.65483 | 10657 ft | 288 kts | 104° |
| 2026-05-04 23:37 | 18.52207 | -65.63452 | 10516 ft | 285 kts | 104° |
| 2026-05-04 23:37 | 18.51711 | -65.61421 | 10359 ft | 284 kts | 104° |
| 2026-05-04 23:37 | 18.51223 | -65.59425 | 10166 ft | 282 kts | 104° |
| 2026-05-04 23:38 | 18.50735 | -65.57430 | 9938 ft | 276 kts | 104° |
| 2026-05-04 23:38 | 18.50263 | -65.55500 | 9704 ft | 272 kts | 104° |
| 2026-05-04 23:38 | 18.49796 | -65.53593 | 9450 ft | 268 kts | 104° |
| 2026-05-04 23:38 | 18.49332 | -65.51696 | 9186 ft | 264 kts | 104° |
| 2026-05-04 23:39 | 18.48875 | -65.49833 | 8917 ft | 262 kts | 103° |
| 2026-05-04 23:39 | 18.48421 | -65.47983 | 8644 ft | 259 kts | 104° |
| 2026-05-04 23:39 | 18.47678 | -65.46282 | 8386 ft | 256 kts | 128° |
| 2026-05-04 23:39 | 18.46483 | -65.44922 | 8116 ft | 254 kts | 132° |
| 2026-05-04 23:40 | 18.45259 | -65.43570 | 7814 ft | 253 kts | 131° |
| 2026-05-04 23:40 | 18.44024 | -65.42222 | 7513 ft | 253 kts | 132° |
| 2026-05-04 23:40 | 18.42807 | -65.40907 | 7216 ft | 252 kts | 132° |
| 2026-05-04 23:40 | 18.41586 | -65.39595 | 6916 ft | 251 kts | 132° |
| 2026-05-04 23:41 | 18.40358 | -65.38281 | 6616 ft | 250 kts | 132° |
| 2026-05-04 23:41 | 18.39140 | -65.36980 | 6325 ft | 248 kts | 131° |
| 2026-05-04 23:41 | 18.37933 | -65.35690 | 6033 ft | 247 kts | 131° |
| 2026-05-04 23:41 | 18.36712 | -65.34388 | 5740 ft | 246 kts | 132° |
| 2026-05-04 23:42 | 18.35498 | -65.33094 | 5446 ft | 245 kts | 132° |
| 2026-05-04 23:42 | 18.34299 | -65.31815 | 5157 ft | 245 kts | 132° |
| 2026-05-04 23:42 | 18.33137 | -65.30518 | 4863 ft | 242 kts | 125° |
| 2026-05-04 23:42 | 18.32369 | -65.28996 | 4594 ft | 235 kts | 97° |
| 2026-05-04 23:43 | 18.32377 | -65.27285 | 4328 ft | 233 kts | 85° |
| 2026-05-04 23:43 | 18.32505 | -65.25594 | 4025 ft | 233 kts | 87° |
| 2026-05-04 23:43 | 18.32578 | -65.23886 | 3762 ft | 231 kts | 88° |
| 2026-05-04 23:43 | 18.32648 | -65.22221 | 3494 ft | 229 kts | 88° |
| 2026-05-04 23:44 | 18.32721 | -65.20545 | 3234 ft | 227 kts | 88° |
| 2026-05-04 23:44 | 18.32793 | -65.18884 | 3037 ft | 222 kts | 88° |
| 2026-05-04 23:44 | 18.32862 | -65.17323 | 3021 ft | 209 kts | 88° |
| 2026-05-04 23:44 | 18.32928 | -65.15831 | 3016 ft | 195 kts | 88° |
| 2026-05-04 23:45 | 18.32988 | -65.14475 | 2979 ft | 184 kts | 88° |
| 2026-05-04 23:45 | 18.33048 | -65.13078 | 2730 ft | 192 kts | 88° |
| 2026-05-04 23:45 | 18.33109 | -65.11705 | 2456 ft | 183 kts | 89° |
| 2026-05-04 23:45 | 18.33166 | -65.10394 | 2201 ft | 175 kts | 89° |
| 2026-05-04 23:46 | 18.33221 | -65.09131 | 1997 ft | 174 kts | 89° |
| 2026-05-04 23:46 | 18.33277 | -65.07847 | 1767 ft | 172 kts | 89° |
| 2026-05-04 23:46 | 18.33329 | -65.06661 | 1573 ft | 155 kts | 89° |
| 2026-05-04 23:46 | 18.33376 | -65.05573 | 1356 ft | 144 kts | 89° |
| 2026-05-04 23:47 | 18.33420 | -65.04536 | 1150 ft | 137 kts | 89° |
| 2026-05-04 23:47 | 18.33462 | -65.03573 | 957 ft | 128 kts | 89° |
| 2026-05-04 23:47 | 18.33502 | -65.02632 | 801 ft | 130 kts | 89° |
| 2026-05-04 23:47 | 18.33568 | -65.01687 | 700 ft | 129 kts | 88° |
| 2026-05-04 23:48 | 18.33610 | -65.00744 | 469 ft | 131 kts | 90° |
| 2026-05-04 23:48 | 18.33636 | -64.99786 | 286 ft | 130 kts | 89° |
| 2026-05-04 23:48 | 18.33670 | -64.98831 | 113 ft | 130 kts | 90° |
| 2026-05-04 23:48 | 18.33707 | -64.97888 | 28 ft | 126 kts | 90° |
| 2026-05-04 23:49 | 18.33745 | -64.97083 | 32 ft | 78 kts | 88° |
| 2026-05-04 23:49 | 18.33756 | -64.96774 | 32 ft | 11 kts | 88° |
| 2026-05-04 23:49 | 18.33724 | -64.96699 | 30 ft | 10 kts | 156° |
| 2026-05-04 23:49 | 18.33680 | -64.96731 | 30 ft | 7 kts | 255° |
| 2026-05-04 23:50 | 18.33671 | -64.96791 | 31 ft | 10 kts | 264° |
| 2026-05-04 23:50 | 18.33666 | -64.96903 | 32 ft | 19 kts | 268° |
| 2026-05-04 23:50 | 18.33659 | -64.97060 | 32 ft | 15 kts | 267° |
| 2026-05-04 23:50 | 18.33656 | -64.97196 | 32 ft | 17 kts | 263° |
| 2026-05-04 23:51 | 18.33627 | -64.97262 | 30 ft | 4 kts | 184° |
| 2026-05-04 23:51 | 18.33592 | -64.97258 | 30 ft | 6 kts | 177° |
| 2026-05-04 23:51 | 18.33572 | -64.97257 | 30 ft | 0 kts | 178° |